Oak Hill, Ohio
Current Conditions -  °F | °C
As of 4:35 PM on Monday 24 Nov 2014 (Local Time) from KDWU Reporting Station
Clear Clear  
Wind Chill: 59°   Ceiling: Unl
Heat Index: 59°   Visibility: 10mi
Dew Point: 39°   Wind: 13mph
Humidity: 48%   Direction: 280°W
Pressure: 29.69"   Gusts: 21mph
Location:  38.89°N, 82.57°W
Report Text: KDWU 242135Z AUTO 28011G18KT 260V340 10SM CLR 15/04 A2969 RMK AO1
Loading
Personal Weather Stations






























Interactive Weather Map New forecast layout! Learn more

10-Day Weather Forecast

Advertisements
Track Severe Weather on mobile